Hurley, Virginia
Current Conditions -  °F | °C
As of 10:55 AM on Thursday 27 Nov 2014 (Local Time) from KJFZ Reporting Station
Light Snow Light Snow  
Wind Chill: 26°   Ceiling: 500
Heat Index: 33°   Visibility: 2.5mi
Dew Point: 31°   Wind: 7mph
Humidity: 94%   Direction: 310°NW
Pressure: 30.11"   Gusts: NA
Location:  37.42°N, 82.02°W
Report Text: KJFZ 271555Z AUTO 31006KT 2 1/2SM -SN OVC005 00/00 A3011 RMK AO2 T00031005
Loading
Personal Weather Stations






























Interactive Weather Map New forecast layout! Learn more

10-Day Weather Forecast

Advertisements
Track Severe Weather on mobile